createdAt,value
2019-03-23T00:01:43.348Z,102323.12
2019-03-23T00:04:13.698Z,102323.00
2019-03-23T00:06:44.075Z,102324.89
2019-03-23T00:09:14.501Z,102319.20
2019-03-23T00:11:44.822Z,102311.54
2019-03-23T00:14:15.187Z,102306.35
2019-03-23T00:16:45.608Z,102300.05
2019-03-23T00:19:15.972Z,102299.17
2019-03-23T00:21:46.351Z,102300.41
2019-03-23T00:24:16.723Z,102299.29
2019-03-23T00:26:47.095Z,102297.17
2019-03-23T00:29:17.457Z,102289.78
2019-03-23T00:31:47.840Z,102286.08
2019-03-23T00:34:18.281Z,102279.54
2019-03-23T00:36:48.656Z,102277.19
2019-03-23T00:39:19.055Z,102281.49
2019-03-23T00:41:49.422Z,102278.13
2019-03-23T00:44:19.799Z,102270.44
2019-03-23T00:46:50.975Z,102264.11
2019-03-23T00:49:21.402Z,102260.91
2019-03-23T00:51:51.776Z,102256.07
2019-03-23T00:54:22.159Z,102252.98
2019-03-23T00:56:52.518Z,102256.97
2019-03-23T00:59:22.885Z,102253.04
2019-03-23T01:01:53.248Z,102253.20
2019-03-23T01:04:23.629Z,102244.69
2019-03-23T01:06:53.995Z,102237.92
2019-03-23T01:09:24.380Z,102234.70
2019-03-23T01:11:54.746Z,102240.38
2019-03-23T01:14:25.149Z,102232.98
2019-03-23T01:16:55.531Z,102223.74
2019-03-23T01:19:25.905Z,102220.78
2019-03-23T01:21:56.293Z,102218.44
2019-03-23T01:24:26.662Z,102218.66
2019-03-23T01:26:57.065Z,102215.61
2019-03-23T01:29:27.437Z,102217.18
2019-03-23T01:31:57.830Z,102212.82
2019-03-23T01:34:28.193Z,102211.30
2019-03-23T01:37:02.663Z,102208.56
2019-03-23T01:39:30.612Z,102196.15
2019-03-23T01:42:00.980Z,102201.55
2019-03-23T01:44:31.345Z,102207.83
2019-03-23T01:47:01.707Z,102203.48
2019-03-23T01:49:32.060Z,102205.44
2019-03-23T01:52:02.429Z,102208.72
2019-03-23T01:54:32.798Z,102208.29
2019-03-23T01:57:03.162Z,102203.44
2019-03-23T01:59:33.532Z,102199.52
2019-03-23T02:02:03.938Z,102201.02
2019-03-23T02:04:34.314Z,102203.50
2019-03-23T02:07:13.462Z,102204.09
2019-03-23T02:09:37.159Z,102200.55
2019-03-23T02:12:07.523Z,102194.38
2019-03-23T02:14:37.906Z,102192.25
2019-03-23T02:17:08.284Z,102189.05
2019-03-23T02:19:38.655Z,102192.11
2019-03-23T02:22:09.035Z,102188.50
2019-03-23T02:24:39.511Z,102182.59
2019-03-23T02:27:09.891Z,102176.39
2019-03-23T02:29:40.256Z,102178.01
2019-03-23T02:32:10.627Z,102178.24
2019-03-23T02:34:40.996Z,102183.52
2019-03-23T02:37:11.343Z,102186.55
2019-03-23T02:39:41.717Z,102182.91
2019-03-23T02:42:12.100Z,102184.27
2019-03-23T02:44:42.537Z,102184.12
2019-03-23T02:47:12.901Z,102182.66
2019-03-23T02:49:43.271Z,102186.98
2019-03-23T02:52:13.644Z,102182.91
2019-03-23T02:54:43.996Z,102180.20
2019-03-23T02:57:14.366Z,102182.16
2019-03-23T02:59:44.741Z,102180.58
2019-03-23T03:02:15.143Z,102178.78
2019-03-23T03:04:45.510Z,102178.06
2019-03-23T03:07:15.884Z,102182.33
2019-03-23T03:09:46.259Z,102177.18
2019-03-23T03:12:16.614Z,102182.00
2019-03-23T03:14:48.009Z,102171.66
2019-03-23T03:17:18.344Z,102171.75
2019-03-23T03:19:48.701Z,102170.73
2019-03-23T03:22:19.078Z,102169.65
2019-03-23T03:24:49.456Z,102166.02
2019-03-23T03:27:19.836Z,102164.17
2019-03-23T03:29:50.238Z,102163.22
2019-03-23T03:32:20.639Z,102157.42
2019-03-23T03:34:51.028Z,102159.64
2019-03-23T03:37:21.377Z,102167.66
2019-03-23T03:39:51.749Z,102154.73
2019-03-23T03:42:22.117Z,102156.81
2019-03-23T03:44:52.524Z,102156.19
2019-03-23T03:47:22.960Z,102150.53
2019-03-23T03:49:53.325Z,102155.45
2019-03-23T03:52:23.729Z,102156.53
2019-03-23T03:54:54.104Z,102149.06
2019-03-23T03:57:24.444Z,102156.59
2019-03-23T03:59:54.793Z,102151.56
2019-03-23T04:02:25.194Z,102148.20
2019-03-23T04:04:55.546Z,102150.77
2019-03-23T04:07:25.929Z,102148.73
2019-03-23T04:09:56.294Z,102145.28
2019-03-23T04:12:26.676Z,102145.57
2019-03-23T04:14:57.051Z,102139.81
2019-03-23T04:17:28.083Z,102136.50
2019-03-23T04:19:58.462Z,102136.90
2019-03-23T04:22:28.844Z,102137.16
2019-03-23T04:24:59.198Z,102136.03
2019-03-23T04:27:29.569Z,102136.67
2019-03-23T04:29:59.939Z,102133.47
2019-03-23T04:32:30.355Z,102138.02
2019-03-23T04:35:00.713Z,102126.92
2019-03-23T04:37:31.145Z,102128.91
2019-03-23T04:40:01.525Z,102126.17
2019-03-23T04:42:31.947Z,102126.09
2019-03-23T04:45:02.334Z,102120.88
2019-03-23T04:47:32.688Z,102122.91
2019-03-23T04:50:03.425Z,102109.86
2019-03-23T04:52:33.808Z,102106.52
2019-03-23T04:55:07.753Z,102109.62
2019-03-23T04:57:38.574Z,102110.90
2019-03-23T05:00:12.071Z,102109.92
2019-03-23T05:02:42.490Z,102112.17
2019-03-23T05:05:13.024Z,102110.93
2019-03-23T05:07:45.271Z,102104.22
2019-03-23T05:10:15.934Z,102107.91
2019-03-23T05:12:46.307Z,102099.36
2019-03-23T05:15:16.904Z,102099.13
2019-03-23T05:17:47.277Z,102097.53
2019-03-23T05:20:26.140Z,102101.23
2019-03-23T05:22:56.505Z,102102.11
2019-03-23T05:25:28.314Z,102107.02
2019-03-23T05:27:58.969Z,102106.47
2019-03-23T05:30:29.418Z,102104.50
2019-03-23T05:33:01.759Z,102108.23
2019-03-23T05:35:32.183Z,102107.65
2019-03-23T05:38:02.521Z,102103.30
2019-03-23T05:40:32.905Z,102108.28
2019-03-23T05:43:03.274Z,102102.91
2019-03-23T05:45:33.655Z,102104.35
2019-03-23T05:48:04.115Z,102104.53
2019-03-23T05:50:34.606Z,102109.47
2019-03-23T05:53:05.307Z,102108.73
2019-03-23T05:55:35.673Z,102110.94
2019-03-23T05:58:06.074Z,102100.72
2019-03-23T06:00:36.477Z,102097.80
2019-03-23T06:03:06.843Z,102098.28
2019-03-23T06:05:37.200Z,102096.06
2019-03-23T06:08:07.553Z,102095.34
2019-03-23T06:10:37.924Z,102093.84
2019-03-23T06:13:08.502Z,102092.00
2019-03-23T06:15:38.902Z,102090.30
2019-03-23T06:18:09.251Z,102088.16
2019-03-23T06:20:39.626Z,102078.42
2019-03-23T06:23:09.999Z,102072.15
2019-03-23T06:25:40.393Z,102079.55
2019-03-23T06:28:12.201Z,102070.05
2019-03-23T06:30:42.573Z,102067.41
2019-03-23T06:33:12.947Z,102065.17
2019-03-23T06:35:43.329Z,102058.50
2019-03-23T06:38:13.714Z,102061.16
2019-03-23T06:40:44.107Z,102056.64
2019-03-23T06:43:14.489Z,102051.28
2019-03-23T06:45:44.867Z,102057.42
2019-03-23T06:48:15.269Z,102051.84
2019-03-23T06:50:45.626Z,102058.77
2019-03-23T06:53:15.992Z,102060.31
2019-03-23T06:55:46.369Z,102055.39
2019-03-23T06:58:16.750Z,102051.85
2019-03-23T07:00:47.130Z,102048.09
2019-03-23T07:03:17.544Z,102051.28
2019-03-23T07:05:47.754Z,102053.83
2019-03-23T07:08:18.133Z,102061.25
2019-03-23T07:10:48.608Z,102053.41
2019-03-23T07:13:18.992Z,102046.72
2019-03-23T07:15:49.340Z,102053.24
2019-03-23T07:18:19.714Z,102053.50
2019-03-23T07:20:50.064Z,102041.16
2019-03-23T07:23:20.444Z,102036.40
2019-03-23T07:25:50.813Z,102033.55
2019-03-23T07:28:21.181Z,102031.76
2019-03-23T07:30:51.562Z,102021.66
2019-03-23T07:33:21.949Z,102019.06
2019-03-23T07:35:52.318Z,102027.64
2019-03-23T07:38:22.939Z,102027.11
2019-03-23T07:40:53.291Z,102019.26
2019-03-23T07:43:23.658Z,102017.72
2019-03-23T07:45:54.093Z,102000.30
2019-03-23T07:48:24.470Z,102002.07
2019-03-23T07:50:54.868Z,102004.80
2019-03-23T07:53:25.247Z,102012.48
2019-03-23T07:55:56.240Z,102016.80
2019-03-23T07:58:26.638Z,102008.84
2019-03-23T08:00:57.030Z,102010.63
2019-03-23T08:03:27.426Z,102018.86
2019-03-23T08:05:58.331Z,102015.57
2019-03-23T08:08:28.681Z,102009.95
2019-03-23T08:10:59.037Z,102010.41
2019-03-23T08:13:29.466Z,101998.12
2019-03-23T08:15:59.969Z,101997.93
2019-03-23T08:18:30.341Z,101995.55
2019-03-23T08:21:00.727Z,101998.42
2019-03-23T08:23:31.098Z,102006.25
2019-03-23T08:26:01.464Z,101998.92
2019-03-23T08:28:32.539Z,102005.48
2019-03-23T08:31:02.859Z,102003.32
2019-03-23T08:33:33.243Z,102001.55
2019-03-23T08:36:03.648Z,101999.94
2019-03-23T08:38:36.309Z,101999.44
2019-03-23T08:41:06.684Z,101995.67
2019-03-23T08:43:37.129Z,101989.84
2019-03-23T08:46:07.493Z,101993.20
2019-03-23T08:48:37.928Z,101997.06
2019-03-23T08:51:08.292Z,101996.22
2019-03-23T08:53:38.655Z,101993.11
2019-03-23T08:56:09.023Z,101988.84
2019-03-23T08:58:38.452Z,101990.89
2019-03-23T09:01:08.833Z,101985.30
2019-03-23T09:03:39.217Z,101990.02
2019-03-23T09:06:09.593Z,101992.47
2019-03-23T09:08:40.117Z,101979.06
2019-03-23T09:11:20.250Z,101986.09
2019-03-23T09:13:42.604Z,101971.75
2019-03-23T09:16:13.008Z,101971.96
2019-03-23T09:18:43.409Z,101972.80
2019-03-23T09:21:13.789Z,101964.92
2019-03-23T09:23:44.222Z,101953.72
2019-03-23T09:26:14.768Z,101952.34
2019-03-23T09:28:45.199Z,101946.56
2019-03-23T09:31:15.589Z,101946.13
2019-03-23T09:33:45.968Z,101942.74
2019-03-23T09:36:16.347Z,101942.69
2019-03-23T09:38:46.708Z,101938.16
2019-03-23T09:41:17.072Z,101931.14
2019-03-23T09:43:48.805Z,101930.59
2019-03-23T09:46:19.172Z,101928.58
2019-03-23T09:48:49.541Z,101930.89
2019-03-23T09:51:19.918Z,101924.83
2019-03-23T09:53:50.292Z,101922.32
2019-03-23T09:56:20.650Z,101919.78
2019-03-23T09:58:52.080Z,101924.69
2019-03-23T10:01:22.447Z,101922.08
2019-03-23T10:03:52.802Z,101916.08
2019-03-23T10:06:23.168Z,101919.33
2019-03-23T10:08:53.538Z,101918.80
2019-03-23T10:11:24.880Z,101914.53
2019-03-23T10:13:55.271Z,101915.95
2019-03-23T10:16:25.668Z,101913.08
2019-03-23T10:18:56.017Z,101913.19
2019-03-23T10:21:26.376Z,101913.44
2019-03-23T10:23:56.744Z,101910.95
2019-03-23T10:26:28.976Z,101912.46
2019-03-23T10:28:59.367Z,101898.20
2019-03-23T10:31:29.735Z,101902.42
2019-03-23T10:34:00.115Z,101900.19
2019-03-23T10:36:30.623Z,101892.66
2019-03-23T10:39:01.016Z,101888.47
2019-03-23T10:41:32.469Z,101892.88
2019-03-23T10:44:03.011Z,101896.44
2019-03-23T10:46:33.680Z,101891.56
2019-03-23T10:49:04.349Z,101882.97
2019-03-23T10:51:34.708Z,101889.23
2019-03-23T10:54:05.078Z,101882.65
2019-03-23T10:56:35.466Z,101878.50
2019-03-23T10:59:05.841Z,101873.99
2019-03-23T11:01:36.231Z,101873.95
2019-03-23T11:04:06.609Z,101867.00
2019-03-23T11:06:37.024Z,101866.55
2019-03-23T11:09:07.421Z,101863.95
2019-03-23T11:11:37.867Z,101862.91
2019-03-23T11:14:08.238Z,101872.43
2019-03-23T11:16:38.686Z,101872.43
2019-03-23T11:19:13.420Z,101864.13
2019-03-23T11:21:41.108Z,101869.67
2019-03-23T11:24:11.454Z,101868.75
2019-03-23T11:26:41.831Z,101870.59
2019-03-23T11:29:12.205Z,101864.29
2019-03-23T11:31:42.607Z,101868.63
2019-03-23T11:34:17.743Z,101864.50
2019-03-23T11:36:45.684Z,101862.84
2019-03-23T11:39:16.055Z,101849.26
2019-03-23T11:41:46.529Z,101848.67
2019-03-23T11:44:16.961Z,101845.65
2019-03-23T11:46:48.746Z,101844.19
2019-03-23T11:49:19.116Z,101846.04
2019-03-23T11:51:49.610Z,101849.47
2019-03-23T11:54:20.031Z,101841.98
2019-03-23T11:56:50.711Z,101840.06
2019-03-23T11:59:22.222Z,101838.38
2019-03-23T12:01:52.620Z,101833.42
2019-03-23T12:04:24.932Z,101826.92
2019-03-23T12:06:55.357Z,101815.14
2019-03-23T12:09:25.728Z,101817.71
2019-03-23T12:11:56.191Z,101806.41
2019-03-23T12:14:26.592Z,101806.78
2019-03-23T12:16:57.296Z,101805.69
2019-03-23T12:19:27.752Z,101800.33
2019-03-23T12:21:58.123Z,101796.95
2019-03-23T12:24:31.027Z,101797.28
2019-03-23T12:27:01.680Z,101795.72
2019-03-23T12:29:32.027Z,101791.48
2019-03-23T12:32:02.401Z,101793.19
2019-03-23T12:34:32.758Z,101785.08
2019-03-23T12:37:03.112Z,101771.50
2019-03-23T12:39:33.469Z,101782.08
2019-03-23T12:42:03.838Z,101775.09
2019-03-23T12:44:34.206Z,101779.70
2019-03-23T12:47:04.583Z,101773.80
2019-03-23T12:49:34.987Z,101774.97
2019-03-23T12:52:05.446Z,101773.13
2019-03-23T12:54:35.921Z,101773.84
2019-03-23T12:57:06.436Z,101768.77
2019-03-23T12:59:36.815Z,101760.41
2019-03-23T13:02:07.304Z,101759.76
2019-03-23T13:04:37.750Z,101759.08
2019-03-23T13:07:08.203Z,101752.91
2019-03-23T13:09:38.533Z,101755.74
2019-03-23T13:12:08.918Z,101751.47
2019-03-23T13:14:40.235Z,101747.80
2019-03-23T13:17:10.629Z,101740.91
2019-03-23T13:19:41.992Z,101739.80
2019-03-23T13:22:12.369Z,101735.40
2019-03-23T13:24:42.756Z,101734.55
2019-03-23T13:27:13.146Z,101729.58
2019-03-23T13:29:43.515Z,101729.69
2019-03-23T13:32:13.945Z,101722.53
2019-03-23T13:34:44.351Z,101718.88
2019-03-23T13:37:16.180Z,101722.67
2019-03-23T13:39:46.618Z,101720.31
2019-03-23T13:42:17.011Z,101720.19
2019-03-23T13:44:47.365Z,101712.58
2019-03-23T13:47:17.745Z,101708.12
2019-03-23T13:49:48.445Z,101708.88
2019-03-23T13:52:19.862Z,101703.23
2019-03-23T13:54:50.284Z,101703.50
2019-03-23T13:57:20.633Z,101701.46
2019-03-23T13:59:51.972Z,101705.27
2019-03-23T14:02:22.441Z,101705.92
2019-03-23T14:04:53.025Z,101691.64
2019-03-23T14:07:23.408Z,101704.05
2019-03-23T14:09:53.793Z,101695.06
2019-03-23T14:12:24.502Z,101692.87
2019-03-23T14:14:55.255Z,101690.77
2019-03-23T14:17:25.872Z,101695.13
2019-03-23T14:19:56.293Z,101689.41
2019-03-23T14:22:26.704Z,101691.70
2019-03-23T14:24:57.081Z,101689.20
2019-03-23T14:27:27.472Z,101687.63
2019-03-23T14:29:57.848Z,101682.95
2019-03-23T14:32:28.215Z,101682.52
2019-03-23T14:34:58.589Z,101677.39
2019-03-23T14:37:28.953Z,101676.29
2019-03-23T14:39:59.336Z,101671.73
2019-03-23T14:42:29.993Z,101670.30
2019-03-23T14:45:00.551Z,101668.09
2019-03-23T14:47:31.001Z,101666.11
2019-03-23T14:50:01.368Z,101661.05
2019-03-23T14:52:31.757Z,101664.09
2019-03-23T14:55:02.132Z,101657.80
2019-03-23T14:57:32.502Z,101657.52
2019-03-23T15:00:03.380Z,101659.89
2019-03-23T15:02:34.435Z,101661.21
2019-03-23T15:05:06.858Z,101663.25
2019-03-23T15:07:39.021Z,101659.89
2019-03-23T15:10:09.833Z,101660.34
2019-03-23T15:12:40.239Z,101662.86
2019-03-23T15:15:10.601Z,101656.27
2019-03-23T15:17:48.428Z,101654.56
2019-03-23T15:20:13.311Z,101655.61
2019-03-23T15:22:43.665Z,101652.42
2019-03-23T15:25:14.401Z,101649.53
2019-03-23T15:27:44.781Z,101651.66
2019-03-23T15:30:15.236Z,101650.43
2019-03-23T15:32:45.670Z,101648.53
2019-03-23T15:35:16.311Z,101644.03
2019-03-23T15:37:47.468Z,101648.53
2019-03-23T15:40:17.862Z,101645.78
2019-03-23T15:42:48.258Z,101643.93
2019-03-23T15:45:19.257Z,101649.62
2019-03-23T15:47:49.639Z,101643.13
2019-03-23T15:50:20.043Z,101641.63
2019-03-23T15:52:52.297Z,101646.66
2019-03-23T15:55:22.910Z,101643.42
2019-03-23T15:57:53.230Z,101653.17
2019-03-23T16:00:23.602Z,101658.59
2019-03-23T16:02:54.585Z,101655.58
2019-03-23T16:05:25.303Z,101654.64
2019-03-23T16:07:55.756Z,101656.75
2019-03-23T16:10:26.544Z,101660.90
2019-03-23T16:12:57.018Z,101658.00
2019-03-23T16:15:27.609Z,101665.47
2019-03-23T16:17:57.976Z,101667.78
2019-03-23T16:20:28.501Z,101661.59
2019-03-23T16:22:59.132Z,101663.20
2019-03-23T16:25:30.120Z,101669.24
2019-03-23T16:28:00.857Z,101676.52
2019-03-23T16:30:32.182Z,101678.09
2019-03-23T16:33:02.539Z,101679.45
2019-03-23T16:35:32.910Z,101680.16
2019-03-23T16:38:03.289Z,101679.00
2019-03-23T16:40:33.835Z,101682.47
2019-03-23T16:43:06.265Z,101694.95
2019-03-23T16:45:36.250Z,101696.48
2019-03-23T16:48:06.647Z,101703.67
2019-03-23T16:50:37.036Z,101713.75
2019-03-23T16:53:07.555Z,101716.68
2019-03-23T16:55:38.236Z,101733.35
2019-03-23T16:58:15.934Z,101731.63
2019-03-23T17:00:41.182Z,101724.55
2019-03-23T17:03:12.611Z,101729.48
2019-03-23T17:05:43.470Z,101730.36
2019-03-23T17:08:14.150Z,101738.10
2019-03-23T17:10:44.935Z,101732.86
2019-03-23T17:13:15.893Z,101739.52
2019-03-23T17:15:46.387Z,101748.70
2019-03-23T17:18:16.825Z,101757.28
2019-03-23T17:20:48.294Z,101770.38
2019-03-23T17:23:18.666Z,101775.82
2019-03-23T17:25:49.021Z,101777.22
2019-03-23T17:28:20.521Z,101780.09
2019-03-23T17:30:52.106Z,101789.05
2019-03-23T17:33:22.469Z,101799.39
2019-03-23T17:35:52.879Z,101797.95
2019-03-23T17:38:23.227Z,101803.87
2019-03-23T17:40:55.024Z,101810.44
2019-03-23T17:43:25.412Z,101817.77
2019-03-23T17:45:55.858Z,101816.91
2019-03-23T17:48:26.249Z,101834.19
2019-03-23T17:50:56.606Z,101834.03
2019-03-23T17:53:26.989Z,101838.72
2019-03-23T17:55:57.488Z,101852.98
2019-03-23T17:58:29.424Z,101850.33
2019-03-23T18:00:59.778Z,101855.88
2019-03-23T18:03:30.167Z,101858.11
2019-03-23T18:06:00.544Z,101864.92
2019-03-23T18:08:30.917Z,101865.02
2019-03-23T18:11:01.291Z,101876.20
2019-03-23T18:13:32.781Z,101876.58
2019-03-23T18:16:03.153Z,101885.14
2019-03-23T18:18:33.527Z,101886.31
2019-03-23T18:21:03.908Z,101890.06
2019-03-23T18:23:34.281Z,101887.82
2019-03-23T18:26:04.655Z,101896.02
2019-03-23T18:28:35.026Z,101896.64
2019-03-23T18:31:05.395Z,101905.19
2019-03-23T18:33:35.768Z,101906.22
2019-03-23T18:36:06.142Z,101910.90
2019-03-23T18:38:36.874Z,101908.96
2019-03-23T18:41:07.332Z,101909.63
2019-03-23T18:43:38.486Z,101917.91
2019-03-23T18:46:08.834Z,101915.09
2019-03-23T18:48:39.212Z,101919.07
2019-03-23T18:51:09.582Z,101917.94
2019-03-23T18:53:39.942Z,101926.92
2019-03-23T18:56:10.343Z,101926.05
2019-03-23T18:58:40.746Z,101928.95
2019-03-23T19:01:12.460Z,101932.63
2019-03-23T19:03:42.845Z,101939.03
2019-03-23T19:06:15.967Z,101938.67
2019-03-23T19:08:46.427Z,101940.67
2019-03-23T19:11:16.887Z,101948.51
2019-03-23T19:13:48.596Z,101950.75
2019-03-23T19:16:19.463Z,101953.91
2019-03-23T19:18:49.846Z,101958.88
2019-03-23T19:21:20.245Z,101957.65
2019-03-23T19:23:50.678Z,101960.44
2019-03-23T19:26:23.842Z,101963.48
2019-03-23T19:28:54.265Z,101968.28
2019-03-23T19:31:28.080Z,101967.41
2019-03-23T19:33:58.699Z,101970.15
2019-03-23T19:36:29.302Z,101979.34
2019-03-23T19:39:00.226Z,101978.73
2019-03-23T19:41:30.638Z,101981.41
2019-03-23T19:44:01.032Z,101978.06
2019-03-23T19:46:31.432Z,101979.30
2019-03-23T19:49:01.801Z,101981.59
2019-03-23T19:51:32.246Z,101980.66
2019-03-23T19:54:02.655Z,101985.86
2019-03-23T19:56:33.032Z,101983.61
2019-03-23T19:59:03.494Z,101995.30
2019-03-23T20:01:34.581Z,101993.22
2019-03-23T20:04:06.454Z,102002.02
2019-03-23T20:06:36.769Z,102001.65
2019-03-23T20:09:08.513Z,101997.69
2019-03-23T20:11:38.898Z,101991.84
2019-03-23T20:14:09.276Z,102008.61
2019-03-23T20:16:40.390Z,102005.56
2019-03-23T20:19:11.649Z,102004.77
2019-03-23T20:21:42.026Z,102010.44
2019-03-23T20:24:12.440Z,102006.63
2019-03-23T20:26:42.840Z,102010.30
2019-03-23T20:29:13.243Z,102011.91
2019-03-23T20:31:45.718Z,102015.11
2019-03-23T20:34:16.099Z,102018.38
2019-03-23T20:36:46.580Z,102026.59
2019-03-23T20:39:16.963Z,102022.28
2019-03-23T20:41:48.090Z,102032.53
2019-03-23T20:44:18.967Z,102027.84
2019-03-23T20:46:49.491Z,102029.45
2019-03-23T20:49:20.364Z,102026.86
2019-03-23T20:51:52.273Z,102029.45
2019-03-23T20:54:24.309Z,102029.45
2019-03-23T20:56:54.687Z,102031.30
2019-03-23T20:59:25.165Z,102028.08
2019-03-23T21:01:55.652Z,102032.89
2019-03-23T21:04:26.021Z,102030.88
2019-03-23T21:06:57.493Z,102031.85
2019-03-23T21:09:28.199Z,102028.44
2019-03-23T21:11:59.251Z,102020.66
2019-03-23T21:14:29.677Z,102028.59
2019-03-23T21:17:00.073Z,102025.66
2019-03-23T21:19:30.983Z,102028.61
2019-03-23T21:22:01.818Z,102029.96
2019-03-23T21:24:33.121Z,102039.83
2019-03-23T21:27:03.498Z,102038.09
2019-03-23T21:29:33.877Z,102042.69
2019-03-23T21:32:04.272Z,102035.64
2019-03-23T21:34:34.639Z,102034.42
2019-03-23T21:37:05.056Z,102035.04
2019-03-23T21:39:35.453Z,102043.02
2019-03-23T21:42:05.831Z,102033.30
2019-03-23T21:44:36.262Z,102041.69
2019-03-23T21:47:06.671Z,102036.38
2019-03-23T21:49:37.431Z,102035.02
2019-03-23T21:52:08.491Z,102037.86
2019-03-23T21:54:38.888Z,102041.58
2019-03-23T21:57:09.293Z,102035.16
2019-03-23T21:59:39.694Z,102034.89
2019-03-23T22:02:10.087Z,102035.62
2019-03-23T22:04:42.854Z,102037.98
2019-03-23T22:07:14.221Z,102044.16
2019-03-23T22:09:44.654Z,102044.72
2019-03-23T22:12:15.102Z,102045.94
2019-03-23T22:14:45.863Z,102050.61
2019-03-23T22:17:16.252Z,102044.42
2019-03-23T22:19:46.624Z,102048.98
2019-03-23T22:22:17.014Z,102052.09
2019-03-23T22:24:47.409Z,102053.15
2019-03-23T22:27:19.188Z,102052.45
2019-03-23T22:29:49.742Z,102054.79
2019-03-23T22:32:21.724Z,102056.27
2019-03-23T22:34:52.117Z,102056.98
2019-03-23T22:37:22.490Z,102060.31
2019-03-23T22:39:53.594Z,102058.31
2019-03-23T22:42:24.041Z,102049.36
2019-03-23T22:44:54.430Z,102059.86
2019-03-23T22:47:27.311Z,102051.06
2019-03-23T22:49:58.685Z,102060.41
2019-03-23T22:52:29.090Z,102066.36
2019-03-23T22:54:59.475Z,102064.39
2019-03-23T22:57:29.842Z,102063.39
2019-03-23T23:00:00.578Z,102071.91
2019-03-23T23:02:31.155Z,102072.02
2019-03-23T23:05:01.544Z,102069.77
2019-03-23T23:07:32.005Z,102071.90
2019-03-23T23:10:02.316Z,102069.55
2019-03-23T23:12:32.773Z,102079.74
2019-03-23T23:15:04.723Z,102074.97
2019-03-23T23:17:35.504Z,102073.99
2019-03-23T23:20:07.237Z,102081.19
2019-03-23T23:22:39.649Z,102082.17
2019-03-23T23:25:10.421Z,102078.04
2019-03-23T23:27:40.897Z,102081.02
2019-03-23T23:30:11.669Z,102080.76
2019-03-23T23:32:42.057Z,102082.59
2019-03-23T23:35:12.407Z,102082.16
2019-03-23T23:37:42.783Z,102074.78
2019-03-23T23:40:13.133Z,102080.52
2019-03-23T23:42:44.637Z,102082.70
2019-03-23T23:45:16.116Z,102090.50
2019-03-23T23:47:46.511Z,102090.13
2019-03-23T23:50:16.911Z,102093.02
2019-03-23T23:52:48.363Z,102097.63
2019-03-23T23:55:18.878Z,102093.90
2019-03-23T23:57:49.294Z,102093.28
